KOSH

Wittman Regional Airport

Oshkosh, Wisconsin, USA
METAR KOSH 190653Z AUTO 20007KT 10SM CLR M06/M09 A2981 RMK AO2 SLP111 T10561089
Observed Flight Rules
Jan-19 @ 06:53 UTC (28 minutes ago) Visual Flight Rules
Wind Visibility Clouds
200° at 7 knots 10 miles
  • Clear skies
Temperatures Readings
Current -6°C / 21°F
Dewpoint -9°C / 16°F
Humidity 80%
Altimeter 29.81" Hg
Pressure 1011.1 hPa
Elevation 248
METAR KOSH 190653Z AUTO 20007KT 10SM CLR M06/M09 A2981 RMK AO2 SLP111 T10561089
Observed Flight Rules
Jan-19 @ 06:53 UTC
(28 minutes ago)
VFR
Wind Visibility
200° at 7 knots 10 miles
Clouds
  • Clear skies
Temperature Dewpoint
-6°C / 21°F -9°C / 16°F
Humidity Altimeter Pressure
80% 29.81" Hg 1011.1 hPa